Time;durP1;ratioP1;P1;durP2;ratioP2;P2;SDS_P1;SDS_P2;PMS_P1;PMS_P2;Temp;Humidity;BMP_temperature;BMP_pressure;BME280_temperature;BME280_humidity;BME280_pressure;Samples;Min_cycle;Max_cycle;Signal;HPM_P1;HPM_P2
2022/05/07 00:02:43;;;;;;;;;;;22.80;44.10;;;;;;6180367;28;20062;-52
2022/05/07 00:05:44;;;;;;;;;;;22.80;44.10;;;;;;6184028;28;19929;-57
2022/05/07 00:08:46;;;;;;;;;;;22.90;44.10;;;;;;6182835;28;19937;-53
2022/05/07 00:11:48;;;;;;;;;;;22.90;44.10;;;;;;6185402;28;19933;-51
2022/05/07 00:14:50;;;;;;;;;;;23.20;44.20;;;;;;6183098;28;19936;-55
2022/05/07 00:21:08;;;;;;;;;;;22.70;44.00;;;;;;6171916;28;19929;-57
2022/05/07 00:24:10;;;;;;;;;;;22.80;44.10;;;;;;6172982;28;19932;-54
2022/05/07 00:27:13;;;;;;;;;;;23.00;44.20;;;;;;6181478;28;19928;-54
2022/05/07 00:30:15;;;;;;;;;;;23.10;44.30;;;;;;6183126;28;19933;-53
2022/05/07 00:33:16;;;;;;;;;;;22.70;44.00;;;;;;6187410;28;19929;-56
2022/05/07 00:36:17;;;;;;;;;;;22.90;44.80;;;;;;6174863;28;19960;-54
2022/05/07 00:39:20;;;;;;;;;;;22.70;44.00;;;;;;6177601;28;19996;-53
2022/05/07 00:42:21;;;;;;;;;;;23.10;44.30;;;;;;6184006;28;20063;-52
2022/05/07 00:45:22;;;;;;;;;;;23.30;44.30;;;;;;6184595;28;19936;-56
2022/05/07 00:48:25;;;;;;;;;;;23.10;44.30;;;;;;6184229;28;19939;-53
2022/05/07 00:51:34;;;;;;;;;;;22.60;44.00;;;;;;6154109;28;19925;-54
2022/05/07 00:54:37;;;;;;;;;;;22.70;44.00;;;;;;6186390;28;19929;-51
2022/05/07 00:57:40;;;;;;;;;;;22.90;44.20;;;;;;6179817;28;20735;-52
2022/05/07 01:00:43;;;;;;;;;;;23.00;44.20;;;;;;6158432;28;19933;-54
2022/05/07 01:03:46;;;;;;;;;;;22.60;44.00;;;;;;6168360;28;20050;-53
2022/05/07 01:06:48;;;;;;;;;;;22.70;44.60;;;;;;6188114;28;19935;-56
2022/05/07 01:09:50;;;;;;;;;;;22.80;44.10;;;;;;6184734;28;19936;-54
2022/05/07 01:12:54;;;;;;;;;;;22.90;44.20;;;;;;6187552;28;20712;-54
2022/05/07 01:15:56;;;;;;;;;;;22.80;44.10;;;;;;6183461;28;19936;-54
2022/05/07 01:19:01;;;;;;;;;;;22.70;44.10;;;;;;6183409;28;19975;-51
2022/05/07 01:22:03;;;;;;;;;;;22.60;44.00;;;;;;6185861;28;19995;-55
2022/05/07 01:25:06;;;;;;;;;;;23.00;44.20;;;;;;6184472;28;19928;-52
2022/05/07 01:28:07;;;;;;;;;;;22.90;44.10;;;;;;6174317;28;19929;-53
2022/05/07 01:31:11;;;;;;;;;;;22.50;43.90;;;;;;6175345;28;19942;-52
2022/05/07 01:34:13;;;;;;;;;;;22.50;43.90;;;;;;6174817;28;19929;-56
2022/05/07 01:37:20;;;;;;;;;;;22.70;44.00;;;;;;6180668;28;19929;-55
2022/05/07 01:40:22;;;;;;;;;;;23.10;44.20;;;;;;6168319;28;19935;-54
2022/05/07 01:43:28;;;;;;;;;;;22.90;44.20;;;;;;6185306;28;19940;-54
2022/05/07 01:49:51;;;;;;;;;;;22.80;44.00;;;;;;6177446;28;19937;-54
2022/05/07 01:52:53;;;;;;;;;;;22.90;44.20;;;;;;6169960;28;19930;-52
2022/05/07 01:55:55;;;;;;;;;;;23.00;44.30;;;;;;6186434;28;19921;-54
2022/05/07 01:59:03;;;;;;;;;;;22.60;44.10;;;;;;6173452;28;20476;-53
2022/05/07 02:02:05;;;;;;;;;;;23.10;44.30;;;;;;6171754;28;19968;-56
2022/05/07 02:05:07;;;;;;;;;;;23.00;44.30;;;;;;6184432;28;20921;-55
2022/05/07 02:08:09;;;;;;;;;;;22.90;44.20;;;;;;6183481;28;19965;-52
2022/05/07 02:11:12;;;;;;;;;;;22.60;44.00;;;;;;6186901;28;19949;-52
2022/05/07 02:14:14;;;;;;;;;;;22.70;44.10;;;;;;6185866;28;19929;-54
2022/05/07 02:17:15;;;;;;;;;;;22.60;44.00;;;;;;6190225;28;19936;-55
2022/05/07 02:20:16;;;;;;;;;;;22.40;43.90;;;;;;6187902;28;19972;-51
2022/05/07 02:23:19;;;;;;;;;;;22.60;44.00;;;;;;6186277;28;19925;-55
2022/05/07 02:26:20;;;;;;;;;;;22.70;44.00;;;;;;6171284;28;20051;-54
2022/05/07 02:29:21;;;;;;;;;;;22.40;43.90;;;;;;6174354;28;19928;-54
2022/05/07 02:32:23;;;;;;;;;;;22.90;44.20;;;;;;6186967;28;19956;-55
2022/05/07 02:35:25;;;;;;;;;;;22.90;44.20;;;;;;6187928;28;19936;-56
2022/05/07 02:38:27;;;;;;;;;;;22.90;44.20;;;;;;6189407;28;20007;-53
2022/05/07 02:44:43;;;;;;;;;;;22.70;44.10;;;;;;6190146;28;19929;-54
2022/05/07 02:47:45;;;;;;;;;;;22.70;44.10;;;;;;6187950;28;19925;-55
2022/05/07 02:50:48;;;;;;;;;;;22.60;44.00;;;;;;6191566;28;20011;-53
2022/05/07 02:53:50;;;;;;;;;;;22.50;43.90;;;;;;6188097;28;19929;-55
2022/05/07 02:56:54;;;;;;;;;;;22.90;44.20;;;;;;6191164;28;20006;-55
2022/05/07 02:59:55;;;;;;;;;;;22.70;44.10;;;;;;6188486;28;20039;-53
2022/05/07 03:02:57;;;;;;;;;;;22.60;44.00;;;;;;6187473;28;20751;-55
2022/05/07 03:06:02;;;;;;;;;;;22.90;44.20;;;;;;6191971;28;19921;-54
2022/05/07 03:09:07;;;;;;;;;;;22.60;44.00;;;;;;6189709;28;19929;-53
2022/05/07 03:12:09;;;;;;;;;;;22.40;43.40;;;;;;6186919;28;20015;-54
2022/05/07 03:15:11;;;;;;;;;;;22.50;44.00;;;;;;6190425;28;20020;-53
2022/05/07 03:18:12;;;;;;;;;;;22.50;44.00;;;;;;6189703;28;20044;-52
2022/05/07 03:21:14;;;;;;;;;;;22.90;44.20;;;;;;6188195;28;19935;-53
2022/05/07 03:24:16;;;;;;;;;;;22.80;44.10;;;;;;6193853;28;19986;-53
2022/05/07 03:27:17;;;;;;;;;;;22.60;44.00;;;;;;6191935;28;21128;-53
2022/05/07 03:30:19;;;;;;;;;;;22.40;43.90;;;;;;6194556;28;19991;-54
2022/05/07 03:33:31;;;;;;;;;;;22.80;44.20;;;;;;6194614;28;20855;-56
2022/05/07 03:36:33;;;;;;;;;;;22.40;43.90;;;;;;6199324;28;20764;-55
2022/05/07 03:39:37;;;;;;;;;;;22.90;44.30;;;;;;6199574;28;19928;-54
2022/05/07 03:42:38;;;;;;;;;;;22.90;44.20;;;;;;6195808;28;19929;-55
2022/05/07 03:45:40;;;;;;;;;;;22.80;44.20;;;;;;6193173;28;19932;-54
2022/05/07 03:48:43;;;;;;;;;;;22.50;44.00;;;;;;6193844;28;19929;-53
2022/05/07 03:55:02;;;;;;;;;;;22.90;44.30;;;;;;6183394;28;20048;-55
2022/05/07 03:58:04;;;;;;;;;;;22.90;44.20;;;;;;6194959;28;19930;-53
2022/05/07 04:01:10;;;;;;;;;;;22.80;44.20;;;;;;6195846;28;19929;-55
2022/05/07 04:04:12;;;;;;;;;;;22.70;44.20;;;;;;6195497;28;20659;-55
2022/05/07 04:07:15;;;;;;;;;;;22.40;44.00;;;;;;6199142;28;20737;-55
2022/05/07 04:10:24;;;;;;;;;;;22.70;44.10;;;;;;6194374;28;20352;-54
2022/05/07 04:13:26;;;;;;;;;;;22.90;44.20;;;;;;6190241;28;19933;-52
2022/05/07 04:16:31;;;;;;;;;;;22.70;44.20;;;;;;6189066;28;19929;-54
2022/05/07 04:19:42;;;;;;;;;;;22.40;44.00;;;;;;6192630;28;20004;-52
2022/05/07 04:22:45;;;;;;;;;;;22.50;44.10;;;;;;6180557;28;19929;-54
2022/05/07 04:25:49;;;;;;;;;;;22.60;44.10;;;;;;6187719;28;20800;-56
2022/05/07 04:28:54;;;;;;;;;;;22.80;44.20;;;;;;6190729;28;21033;-55
2022/05/07 04:31:57;;;;;;;;;;;22.40;44.00;;;;;;6191273;28;19990;-50
2022/05/07 04:34:58;;;;;;;;;;;22.70;44.20;;;;;;6194564;28;19928;-54
2022/05/07 04:38:02;;;;;;;;;;;22.70;44.30;;;;;;6190807;28;20464;-51
2022/05/07 04:41:05;;;;;;;;;;;22.70;44.20;;;;;;6196127;28;20007;-54
2022/05/07 04:44:08;;;;;;;;;;;22.90;44.30;;;;;;6189798;28;19991;-55
2022/05/07 04:47:10;;;;;;;;;;;22.60;44.20;;;;;;6190850;28;19929;-57
2022/05/07 04:50:12;;;;;;;;;;;22.30;44.00;;;;;;6190837;28;20040;-55
2022/05/07 04:53:19;;;;;;;;;;;22.60;44.30;;;;;;6190851;28;19937;-54
2022/05/07 04:56:24;;;;;;;;;;;22.40;44.20;;;;;;6188943;28;19925;-55
2022/05/07 04:59:33;;;;;;;;;;;22.50;44.10;;;;;;6195929;28;20832;-57
2022/05/07 05:02:43;;;;;;;;;;;22.40;44.10;;;;;;6193886;28;19967;-54
2022/05/07 05:05:49;;;;;;;;;;;22.70;44.30;;;;;;6189321;28;19928;-54
2022/05/07 05:09:05;;;;;;;;;;;22.40;44.20;;;;;;6191502;28;21100;-52
2022/05/07 05:12:10;;;;;;;;;;;22.80;44.30;;;;;;6185715;28;19921;-54
2022/05/07 05:15:16;;;;;;;;;;;22.80;44.90;;;;;;6192469;28;20952;-56
2022/05/07 05:18:37;;;;;;;;;;;22.80;44.30;;;;;;6190987;28;19929;-52
2022/05/07 05:21:38;;;;;;;;;;;22.70;44.40;;;;;;6191970;28;20384;-52
2022/05/07 05:24:48;;;;;;;;;;;22.60;44.20;;;;;;6186061;28;19935;-56
2022/05/07 05:27:50;;;;;;;;;;;22.30;44.10;;;;;;6192328;28;19935;-56
2022/05/07 05:30:53;;;;;;;;;;;22.80;44.40;;;;;;6186528;28;20838;-53
2022/05/07 05:33:58;;;;;;;;;;;22.70;44.30;;;;;;6193718;28;19936;-56
2022/05/07 05:37:06;;;;;;;;;;;22.80;44.40;;;;;;6186121;28;20825;-55
2022/05/07 05:40:15;;;;;;;;;;;22.40;44.20;;;;;;6189646;28;19936;-57
2022/05/07 05:43:25;;;;;;;;;;;22.70;44.40;;;;;;6187639;28;20043;-55
2022/05/07 05:46:28;;;;;;;;;;;22.80;44.40;;;;;;6188527;28;19936;-56
2022/05/07 05:49:29;;;;;;;;;;;22.70;44.40;;;;;;6195851;28;20051;-54
2022/05/07 05:52:32;;;;;;;;;;;22.70;44.40;;;;;;6194835;28;20715;-52
2022/05/07 05:55:34;;;;;;;;;;;22.60;44.30;;;;;;6192933;28;19936;-54
2022/05/07 05:58:36;;;;;;;;;;;22.70;44.30;;;;;;6193986;28;19921;-53
2022/05/07 06:01:38;;;;;;;;;;;22.60;44.30;;;;;;6195361;28;20814;-54
2022/05/07 06:04:48;;;;;;;;;;;22.30;44.80;;;;;;6195860;28;20779;-54
2022/05/07 06:07:55;;;;;;;;;;;22.40;44.20;;;;;;6174808;28;19929;-53
2022/05/07 06:11:05;;;;;;;;;;;22.30;44.20;;;;;;6193507;28;20673;-54
2022/05/07 06:14:08;;;;;;;;;;;23.00;44.50;;;;;;6194773;28;20055;-55
2022/05/07 06:17:09;;;;;;;;;;;22.70;44.30;;;;;;6187109;28;20846;-55
2022/05/07 06:20:15;;;;;;;;;;;22.50;44.20;;;;;;6190171;28;19961;-54
2022/05/07 06:23:23;;;;;;;;;;;22.40;44.30;;;;;;6191222;28;20863;-52
2022/05/07 06:29:47;;;;;;;;;;;22.40;44.90;;;;;;6184786;28;19929;-54
2022/05/07 06:32:48;;;;;;;;;;;22.50;44.30;;;;;;6189144;28;19933;-53
2022/05/07 06:35:50;;;;;;;;;;;22.50;44.30;;;;;;6188690;28;20052;-56
2022/05/07 06:38:58;;;;;;;;;;;22.80;44.50;;;;;;6188165;28;20018;-52
2022/05/07 06:42:00;;;;;;;;;;;23.00;44.60;;;;;;6191694;28;19920;-54
2022/05/07 06:45:02;;;;;;;;;;;22.80;44.50;;;;;;6194744;28;19936;-56
2022/05/07 06:48:11;;;;;;;;;;;22.30;44.30;;;;;;6190640;28;19929;-55
2022/05/07 06:51:14;;;;;;;;;;;22.70;44.40;;;;;;6189058;28;19929;-56
2022/05/07 06:54:17;;;;;;;;;;;22.60;44.30;;;;;;6191161;28;20052;-54
2022/05/07 06:57:18;;;;;;;;;;;22.80;44.50;;;;;;6193015;28;19925;-56
2022/05/07 07:00:21;;;;;;;;;;;22.50;44.30;;;;;;6187434;28;20040;-54
2022/05/07 07:03:24;;;;;;;;;;;22.80;44.40;;;;;;6180658;28;19929;-55
2022/05/07 07:06:25;;;;;;;;;;;22.90;44.50;;;;;;6186056;28;20059;-54
2022/05/07 07:09:27;;;;;;;;;;;22.60;44.40;;;;;;6185636;28;19972;-53
2022/05/07 07:12:29;;;;;;;;;;;22.60;44.40;;;;;;6192114;28;20456;-55
2022/05/07 07:15:39;;;;;;;;;;;22.70;44.40;;;;;;6195686;28;19936;-52
2022/05/07 07:18:40;;;;;;;;;;;22.80;44.50;;;;;;6195479;28;19933;-52
2022/05/07 07:21:42;;;;;;;;;;;22.70;44.40;;;;;;6186059;28;20187;-55
2022/05/07 07:24:43;;;;;;;;;;;22.70;44.40;;;;;;6195287;28;19929;-54
2022/05/07 07:27:45;;;;;;;;;;;22.70;44.40;;;;;;6195281;28;19929;-54
2022/05/07 07:30:47;;;;;;;;;;;22.40;44.20;;;;;;6188658;28;20043;-55
2022/05/07 07:33:48;;;;;;;;;;;22.70;44.40;;;;;;6197455;28;20111;-57
2022/05/07 07:36:50;;;;;;;;;;;22.90;44.50;;;;;;6199094;28;19929;-53
2022/05/07 07:39:52;;;;;;;;;;;22.70;44.40;;;;;;6196892;28;20900;-52
2022/05/07 07:42:53;;;;;;;;;;;22.40;44.30;;;;;;6191774;28;19937;-51
2022/05/07 07:49:10;;;;;;;;;;;22.60;44.30;;;;;;6196851;28;19929;-51
2022/05/07 07:52:13;;;;;;;;;;;22.70;44.40;;;;;;6196381;28;19991;-50
2022/05/07 07:55:14;;;;;;;;;;;22.40;44.20;;;;;;6195942;28;20051;-55
2022/05/07 07:58:15;;;;;;;;;;;22.80;44.50;;;;;;6194974;28;19925;-54
2022/05/07 08:01:17;;;;;;;;;;;22.80;44.50;;;;;;6193019;28;19928;-55
2022/05/07 08:04:20;;;;;;;;;;;22.60;44.40;;;;;;6193918;28;20012;-55
2022/05/07 08:13:53;;;;;;;;;;;22.80;44.40;;;;;;6186466;28;19929;-53
2022/05/07 08:16:54;;;;;;;;;;;22.90;44.50;;;;;;6184464;28;19979;-53
2022/05/07 08:19:56;;;;;;;;;;;22.40;44.30;;;;;;6190484;28;19930;-54
2022/05/07 08:22:58;;;;;;;;;;;22.80;44.60;;;;;;6185923;28;19929;-56
2022/05/07 08:25:59;;;;;;;;;;;22.50;44.30;;;;;;6186251;28;20994;-54
2022/05/07 08:29:01;;;;;;;;;;;22.90;44.50;;;;;;6178053;28;19928;-53
2022/05/07 08:32:03;;;;;;;;;;;22.40;44.30;;;;;;6180759;28;20057;-53
2022/05/07 08:35:04;;;;;;;;;;;22.70;44.40;;;;;;6190051;28;19987;-51
2022/05/07 08:38:06;;;;;;;;;;;22.70;44.40;;;;;;6185504;28;19936;-54
2022/05/07 08:41:09;;;;;;;;;;;22.80;44.40;;;;;;6185459;28;19964;-51
2022/05/07 08:44:11;;;;;;;;;;;22.50;44.40;;;;;;6183405;28;21234;-53
2022/05/07 08:47:13;;;;;;;;;;;22.50;44.30;;;;;;6183879;28;19975;-53
2022/05/07 08:50:16;;;;;;;;;;;23.00;44.50;;;;;;6184272;28;19921;-52
2022/05/07 08:53:18;;;;;;;;;;;22.60;44.30;;;;;;6187910;28;19968;-52
2022/05/07 08:56:20;;;;;;;;;;;22.90;44.40;;;;;;6187436;28;20041;-53
2022/05/07 08:59:22;;;;;;;;;;;22.60;44.20;;;;;;6187023;28;19929;-52
2022/05/07 09:02:24;;;;;;;;;;;22.90;44.40;;;;;;6187485;28;20470;-53
2022/05/07 09:05:32;;;;;;;;;;;22.80;44.30;;;;;;6186044;28;19929;-53
2022/05/07 09:08:33;;;;;;;;;;;22.70;44.20;;;;;;6172216;28;20910;-52
2022/05/07 09:11:38;;;;;;;;;;;23.00;44.40;;;;;;6174210;28;19929;-54
2022/05/07 09:14:40;;;;;;;;;;;22.70;44.20;;;;;;6187837;28;20047;-54
2022/05/07 09:17:45;;;;;;;;;;;23.10;44.40;;;;;;6186149;28;19943;-51
2022/05/07 09:21:15;;;;;;;;;;;22.80;44.10;;;;;;6188211;28;19925;-53
2022/05/07 09:24:17;;;;;;;;;;;22.70;44.20;;;;;;6184641;28;19936;-52
2022/05/07 09:27:18;;;;;;;;;;;22.70;44.20;;;;;;6182312;28;20011;-51
2022/05/07 09:30:21;;;;;;;;;;;23.30;44.50;;;;;;6182792;28;19936;-56
2022/05/07 09:33:31;;;;;;;;;;;22.70;44.20;;;;;;6182456;28;19940;-54
2022/05/07 09:36:32;;;;;;;;;;;23.10;44.40;;;;;;6188302;28;20063;-52
2022/05/07 09:39:34;;;;;;;;;;;23.00;44.40;;;;;;6181178;28;20932;-52
2022/05/07 09:42:36;;;;;;;;;;;23.00;44.40;;;;;;6181675;28;20007;-52
2022/05/07 09:45:38;;;;;;;;;;;22.90;44.30;;;;;;6150912;28;19952;-51
2022/05/07 09:48:40;;;;;;;;;;;23.00;44.40;;;;;;6161866;28;19976;-52
2022/05/07 09:51:42;;;;;;;;;;;23.20;44.50;;;;;;6180179;28;20047;-53
2022/05/07 09:58:00;;;;;;;;;;;23.10;44.50;;;;;;6167470;28;19936;-53
2022/05/07 10:01:09;;;;;;;;;;;22.70;44.30;;;;;;6161047;28;20012;-55
2022/05/07 10:04:26;;;;;;;;;;;23.00;45.00;;;;;;6182736;28;19936;-53
2022/05/07 10:07:37;;;;;;;;;;;23.00;44.40;;;;;;6180258;28;19929;-54
2022/05/07 10:10:39;;;;;;;;;;;23.10;44.50;;;;;;6183094;28;19925;-53
2022/05/07 10:13:51;;;;;;;;;;;23.10;44.50;;;;;;6183186;28;20688;-52
2022/05/07 10:16:56;;;;;;;;;;;23.00;44.30;;;;;;6181553;28;21058;-52
2022/05/07 10:20:04;;;;;;;;;;;22.80;44.30;;;;;;6184019;28;20048;-54
2022/05/07 10:23:08;;;;;;;;;;;23.20;44.50;;;;;;6166894;28;20063;-54
2022/05/07 10:26:09;;;;;;;;;;;23.20;44.60;;;;;;6178319;28;20039;-53
2022/05/07 10:29:20;;;;;;;;;;;23.20;44.60;;;;;;6181545;28;27518;-51
2022/05/07 10:32:22;;;;;;;;;;;23.10;44.50;;;;;;6176550;28;19937;-54
2022/05/07 10:35:39;;;;;;;;;;;23.10;44.40;;;;;;6183019;28;20876;-54
2022/05/07 10:38:46;;;;;;;;;;;23.20;44.50;;;;;;6167464;28;20048;-54
2022/05/07 10:41:47;;;;;;;;;;;23.30;44.50;;;;;;6180303;28;20076;-55
2022/05/07 10:44:49;;;;;;;;;;;23.50;44.70;;;;;;6180959;28;19925;-49
2022/05/07 10:47:52;;;;;;;;;;;23.10;44.40;;;;;;6181063;28;19935;-52
2022/05/07 10:50:55;;;;;;;;;;;23.10;44.40;;;;;;6162967;28;19935;-52
2022/05/07 10:54:00;;;;;;;;;;;22.90;44.40;;;;;;6169353;28;19999;-56
2022/05/07 10:57:03;;;;;;;;;;;23.00;44.40;;;;;;6186454;28;20578;-52
2022/05/07 11:00:10;;;;;;;;;;;23.40;44.50;;;;;;6181553;28;19968;-55
2022/05/07 11:03:14;;;;;;;;;;;23.20;44.40;;;;;;6187145;28;19930;-52
2022/05/07 11:06:15;;;;;;;;;;;23.10;44.30;;;;;;6185015;28;19929;-54
2022/05/07 11:09:18;;;;;;;;;;;23.10;44.30;;;;;;6184142;28;19929;-53
2022/05/07 11:12:21;;;;;;;;;;;23.50;44.50;;;;;;6183728;28;21308;-54
2022/05/07 11:15:22;;;;;;;;;;;23.60;44.50;;;;;;6177739;28;19929;-54
2022/05/07 11:18:24;;;;;;;;;;;23.20;44.30;;;;;;6165018;28;20833;-51
2022/05/07 11:21:26;;;;;;;;;;;23.30;44.30;;;;;;6175832;28;20035;-55
2022/05/07 11:24:28;;;;;;;;;;;23.20;44.20;;;;;;6176092;28;21486;-49
2022/05/07 11:27:32;;;;;;;;;;;23.30;44.20;;;;;;6182317;28;20103;-50
2022/05/07 11:30:33;;;;;;;;;;;23.40;44.30;;;;;;6176509;28;19929;-55
2022/05/07 11:33:35;;;;;;;;;;;23.30;44.20;;;;;;6182454;28;19937;-55
2022/05/07 11:36:38;;;;;;;;;;;23.30;44.20;;;;;;6177549;28;19979;-52
2022/05/07 11:39:55;;;;;;;;;;;23.40;44.20;;;;;;6178220;28;20619;-56
2022/05/07 11:46:13;;;;;;;;;;;23.50;44.30;;;;;;6166866;28;19968;-53
2022/05/07 11:49:26;;;;;;;;;;;23.40;44.20;;;;;;6183150;28;19928;-52
2022/05/07 11:52:28;;;;;;;;;;;23.60;44.20;;;;;;6166388;28;19936;-51
2022/05/07 11:55:29;;;;;;;;;;;23.70;44.30;;;;;;6171313;28;19949;-57
2022/05/07 11:58:39;;;;;;;;;;;23.60;44.20;;;;;;6173000;28;19983;-52
2022/05/07 12:01:40;;;;;;;;;;;23.50;44.10;;;;;;6169726;28;20040;-55
2022/05/07 12:04:46;;;;;;;;;;;23.60;44.20;;;;;;6187465;28;19937;-52
2022/05/07 12:07:48;;;;;;;;;;;23.60;44.10;;;;;;6180286;28;19925;-52
2022/05/07 12:10:50;;;;;;;;;;;23.60;44.10;;;;;;6180499;28;19925;-54
2022/05/07 12:13:52;;;;;;;;;;;23.60;44.10;;;;;;6167799;28;19921;-54
2022/05/07 12:20:10;;;;;;;;;;;23.30;44.70;;;;;;6183688;28;19925;-54
2022/05/07 12:32:57;;;;;;;;;;;23.50;44.30;;;;;;6162731;28;19936;-56
2022/05/07 12:35:59;;;;;;;;;;;23.80;44.50;;;;;;6176301;28;19933;-54
2022/05/07 12:39:00;;;;;;;;;;;23.40;44.30;;;;;;6177420;28;19937;-53
2022/05/07 12:42:04;;;;;;;;;;;23.60;44.30;;;;;;6173777;28;19928;-57
2022/05/07 12:45:08;;;;;;;;;;;23.40;44.20;;;;;;6188839;28;19929;-56
2022/05/07 12:48:11;;;;;;;;;;;23.50;44.20;;;;;;6185074;28;19929;-55
2022/05/07 12:51:13;;;;;;;;;;;23.60;44.30;;;;;;6184520;28;19969;-53
2022/05/07 12:54:14;;;;;;;;;;;23.60;44.30;;;;;;6180932;28;20805;-53
2022/05/07 12:57:16;;;;;;;;;;;23.80;44.30;;;;;;6188183;28;19964;-51
2022/05/07 13:00:18;;;;;;;;;;;23.70;44.20;;;;;;6178827;28;19925;-56
2022/05/07 13:03:19;;;;;;;;;;;23.60;44.20;;;;;;6178966;28;19937;-54
2022/05/07 13:06:21;;;;;;;;;;;23.80;44.30;;;;;;6163868;28;19929;-54
2022/05/07 13:09:26;;;;;;;;;;;23.70;44.20;;;;;;6179403;28;19929;-51
2022/05/07 13:12:48;;;;;;;;;;;23.60;44.20;;;;;;6163796;28;20150;-55
2022/05/07 13:15:50;;;;;;;;;;;23.40;44.10;;;;;;6163328;28;19950;-54
2022/05/07 13:18:52;;;;;;;;;;;23.20;44.00;;;;;;6179217;28;20114;-56
2022/05/07 13:21:54;;;;;;;;;;;23.70;44.30;;;;;;6181622;28;19929;-51
2022/05/07 13:24:55;;;;;;;;;;;23.70;44.40;;;;;;6177245;28;19929;-51
2022/05/07 13:27:56;;;;;;;;;;;23.30;44.20;;;;;;6161972;28;19969;-54
2022/05/07 13:30:59;;;;;;;;;;;23.80;44.40;;;;;;6173218;28;20032;-55
2022/05/07 13:34:01;;;;;;;;;;;23.80;44.40;;;;;;6172507;28;19936;-50
2022/05/07 13:37:02;;;;;;;;;;;23.70;44.40;;;;;;6169181;28;19935;-54
2022/05/07 13:40:07;;;;;;;;;;;23.70;44.40;;;;;;6178821;28;20300;-53
2022/05/07 13:43:08;;;;;;;;;;;23.90;44.50;;;;;;6173989;28;19929;-52
2022/05/07 13:46:11;;;;;;;;;;;23.70;44.40;;;;;;6172981;28;20047;-54
2022/05/07 13:49:13;;;;;;;;;;;23.70;44.40;;;;;;6176196;28;20905;-53
2022/05/07 13:52:14;;;;;;;;;;;23.70;44.40;;;;;;6176066;28;20423;-54
2022/05/07 13:55:15;;;;;;;;;;;23.50;44.30;;;;;;6164667;28;20006;-55
2022/05/07 13:58:17;;;;;;;;;;;23.40;44.30;;;;;;6168235;28;19936;-50
2022/05/07 14:01:19;;;;;;;;;;;23.50;44.20;;;;;;6175003;28;19936;-54
2022/05/07 14:04:20;;;;;;;;;;;23.70;44.30;;;;;;6177159;28;19928;-53
2022/05/07 14:07:22;;;;;;;;;;;23.80;44.30;;;;;;6179844;28;19929;-51
2022/05/07 14:10:23;;;;;;;;;;;23.80;44.30;;;;;;6178414;28;20948;-54
2022/05/07 14:13:24;;;;;;;;;;;23.60;44.20;;;;;;6180648;28;19927;-56
2022/05/07 14:16:26;;;;;;;;;;;23.60;44.20;;;;;;6162994;28;19967;-52
2022/05/07 14:19:28;;;;;;;;;;;23.70;44.30;;;;;;6173901;28;19935;-51
2022/05/07 14:22:31;;;;;;;;;;;23.60;44.20;;;;;;6178127;28;19936;-51
2022/05/07 14:25:34;;;;;;;;;;;23.80;44.30;;;;;;6175483;28;19929;-53
2022/05/07 14:28:35;;;;;;;;;;;23.70;44.20;;;;;;6176526;28;20866;-54
2022/05/07 14:31:37;;;;;;;;;;;23.80;44.20;;;;;;6166724;28;21052;-54
2022/05/07 14:34:39;;;;;;;;;;;23.70;44.10;;;;;;6181018;28;21716;-54
2022/05/07 14:37:40;;;;;;;;;;;23.80;44.10;;;;;;6177612;28;20008;-56
2022/05/07 14:40:43;;;;;;;;;;;23.70;44.00;;;;;;6176180;28;19929;-53
2022/05/07 14:43:45;;;;;;;;;;;23.80;44.00;;;;;;6175823;28;19935;-55
2022/05/07 14:46:46;;;;;;;;;;;23.80;44.00;;;;;;6172238;28;20044;-56
2022/05/07 14:49:53;;;;;;;;;;;24.00;44.10;;;;;;6176077;28;19943;-55
2022/05/07 14:52:55;;;;;;;;;;;23.70;43.90;;;;;;6180061;28;19935;-53
2022/05/07 14:55:56;;;;;;;;;;;23.80;44.00;;;;;;6172336;28;20068;-52
2022/05/07 14:58:58;;;;;;;;;;;23.80;44.00;;;;;;6175177;28;19939;-51
2022/05/07 15:02:00;;;;;;;;;;;23.70;43.90;;;;;;6177854;28;19929;-60
2022/05/07 15:05:02;;;;;;;;;;;23.80;44.00;;;;;;6175263;28;19933;-52
2022/05/07 15:11:20;;;;;;;;;;;23.60;44.00;;;;;;6163095;28;19929;-55
2022/05/07 15:14:21;;;;;;;;;;;23.80;44.00;;;;;;6175680;28;20039;-54
2022/05/07 15:17:23;;;;;;;;;;;23.80;44.00;;;;;;6172105;28;19935;-56
2022/05/07 15:20:25;;;;;;;;;;;23.70;43.90;;;;;;6173162;28;20769;-56
2022/05/07 15:23:27;;;;;;;;;;;23.60;43.90;;;;;;6171782;28;19929;-55
2022/05/07 15:26:29;;;;;;;;;;;23.80;44.00;;;;;;6162180;28;19929;-55
2022/05/07 15:29:30;;;;;;;;;;;23.70;43.90;;;;;;6170835;28;19995;-54
2022/05/07 15:39:00;;;;;;;;;;;23.90;44.20;;;;;;6180358;28;19929;-53
2022/05/07 15:42:03;;;;;;;;;;;23.70;44.00;;;;;;6177416;28;20222;-53
2022/05/07 15:45:07;;;;;;;;;;;23.90;44.00;;;;;;6176536;28;20010;-54
2022/05/07 15:48:09;;;;;;;;;;;23.90;44.00;;;;;;6177638;28;20044;-53
2022/05/07 15:51:12;;;;;;;;;;;23.70;43.90;;;;;;6175850;28;20483;-52
2022/05/07 15:54:14;;;;;;;;;;;23.60;43.90;;;;;;6158651;28;19937;-54
2022/05/07 15:57:15;;;;;;;;;;;23.70;43.90;;;;;;6175140;28;20085;-55
2022/05/07 16:00:17;;;;;;;;;;;23.70;43.90;;;;;;6176425;28;19929;-55
2022/05/07 16:03:21;;;;;;;;;;;23.70;44.00;;;;;;6177687;28;20381;-52
2022/05/07 16:06:23;;;;;;;;;;;23.70;43.90;;;;;;6170342;28;19936;-53
2022/05/07 16:09:25;;;;;;;;;;;23.70;43.90;;;;;;6172525;28;19929;-54
2022/05/07 16:12:26;;;;;;;;;;;23.60;44.00;;;;;;6169483;28;20838;-54
2022/05/07 16:15:31;;;;;;;;;;;24.00;44.10;;;;;;6158792;28;20173;-55
2022/05/07 16:18:33;;;;;;;;;;;23.70;43.90;;;;;;6169517;28;19929;-54
2022/05/07 16:21:34;;;;;;;;;;;23.50;43.80;;;;;;6168998;28;20031;-57
2022/05/07 16:27:54;;;;;;;;;;;23.60;43.90;;;;;;6170442;28;19943;-55
2022/05/07 16:30:55;;;;;;;;;;;23.50;43.90;;;;;;6172332;28;19933;-53
2022/05/07 16:34:00;;;;;;;;;;;23.80;44.00;;;;;;6176787;28;20053;-50
2022/05/07 16:37:02;;;;;;;;;;;23.70;43.90;;;;;;6175796;28;20464;-56
2022/05/07 16:40:04;;;;;;;;;;;24.10;44.20;;;;;;6177827;28;19933;-52
2022/05/07 16:43:07;;;;;;;;;;;23.50;43.80;;;;;;6179292;28;19968;-57
2022/05/07 16:46:08;;;;;;;;;;;23.80;44.00;;;;;;6169957;28;19976;-54
2022/05/07 16:49:10;;;;;;;;;;;23.80;44.00;;;;;;6176645;28;19929;-54
2022/05/07 16:52:12;;;;;;;;;;;23.70;43.90;;;;;;6180518;28;19933;-55
2022/05/07 16:55:13;;;;;;;;;;;23.70;43.90;;;;;;6176427;28;20044;-54
2022/05/07 16:58:18;;;;;;;;;;;23.70;43.90;;;;;;6175597;28;19929;-53
2022/05/07 17:01:20;;;;;;;;;;;23.80;44.00;;;;;;6181332;28;20040;-55
2022/05/07 17:04:24;;;;;;;;;;;23.70;43.90;;;;;;6173781;28;20891;-53
2022/05/07 17:07:27;;;;;;;;;;;23.70;43.90;;;;;;6179066;28;19925;-55
2022/05/07 17:10:28;;;;;;;;;;;23.70;43.90;;;;;;6180360;28;19998;-54
2022/05/07 17:13:29;;;;;;;;;;;23.50;43.90;;;;;;6180733;28;20014;-56
2022/05/07 17:16:31;;;;;;;;;;;23.70;44.00;;;;;;6174678;28;20040;-56
2022/05/07 17:19:33;;;;;;;;;;;23.70;44.00;;;;;;6171418;28;20271;-54
2022/05/07 17:22:34;;;;;;;;;;;23.70;43.90;;;;;;6180838;28;19929;-55
2022/05/07 17:25:36;;;;;;;;;;;23.40;43.80;;;;;;6170499;28;19937;-52
2022/05/07 17:28:37;;;;;;;;;;;23.70;43.90;;;;;;6178121;28;20107;-54
2022/05/07 17:31:39;;;;;;;;;;;23.50;43.90;;;;;;6174220;28;20032;-56
2022/05/07 17:34:41;;;;;;;;;;;23.70;43.80;;;;;;6175308;28;19936;-53
2022/05/07 17:37:42;;;;;;;;;;;23.50;43.70;;;;;;6174502;28;19999;-56
2022/05/07 17:40:44;;;;;;;;;;;23.70;43.80;;;;;;6179721;28;20043;-51
2022/05/07 17:43:46;;;;;;;;;;;23.80;43.90;;;;;;6181729;28;20977;-53
2022/05/07 17:46:48;;;;;;;;;;;23.80;43.80;;;;;;6173246;28;20989;-53
2022/05/07 17:49:49;;;;;;;;;;;23.60;43.70;;;;;;6179395;28;20043;-53
2022/05/07 17:52:51;;;;;;;;;;;23.90;43.80;;;;;;6177295;28;20007;-53
2022/05/07 17:55:52;;;;;;;;;;;23.60;43.60;;;;;;6172013;28;20111;-53
2022/05/07 17:58:55;;;;;;;;;;;23.80;43.70;;;;;;6172252;28;19936;-53
2022/05/07 18:01:59;;;;;;;;;;;23.90;43.80;;;;;;6169568;28;19936;-54
2022/05/07 18:05:01;;;;;;;;;;;23.90;43.80;;;;;;6165084;28;19921;-52
2022/05/07 18:08:03;;;;;;;;;;;23.90;43.70;;;;;;6178841;28;20975;-52
2022/05/07 18:11:05;;;;;;;;;;;23.80;43.70;;;;;;6177967;28;20014;-52
2022/05/07 18:14:06;;;;;;;;;;;23.90;43.80;;;;;;6172314;28;19939;-54
2022/05/07 18:17:08;;;;;;;;;;;23.70;43.60;;;;;;6174026;28;19925;-54
2022/05/07 18:20:11;;;;;;;;;;;23.80;43.60;;;;;;6176858;28;19928;-55
2022/05/07 18:23:12;;;;;;;;;;;23.90;43.70;;;;;;6164990;28;19936;-53
2022/05/07 18:26:16;;;;;;;;;;;23.70;43.70;;;;;;6167934;28;20862;-53
2022/05/07 18:29:20;;;;;;;;;;;23.90;43.70;;;;;;6179741;28;19936;-53
2022/05/07 18:32:26;;;;;;;;;;;24.00;43.80;;;;;;6172748;28;20826;-55
2022/05/07 18:35:28;;;;;;;;;;;24.20;43.90;;;;;;6170422;28;20045;-54
2022/05/07 18:44:57;;;;;;;;;;;23.80;43.80;;;;;;6172981;28;19929;-55
2022/05/07 18:47:59;;;;;;;;;;;23.90;43.80;;;;;;6177004;28;20027;-55
2022/05/07 18:51:02;;;;;;;;;;;23.80;43.70;;;;;;6172559;28;19929;-52